createdAt,value
2018-05-11T00:00:18.072Z,89.54
2018-05-11T00:02:45.688Z,89.78
2018-05-11T00:05:13.400Z,89.41
2018-05-11T00:07:41.001Z,89.10
2018-05-11T00:10:08.689Z,89.06
2018-05-11T00:12:36.352Z,89.06
2018-05-11T00:15:04.030Z,89.33
2018-05-11T00:17:31.638Z,89.30
2018-05-11T00:19:59.294Z,89.64
2018-05-11T00:22:26.880Z,89.98
2018-05-11T00:24:54.539Z,89.48
2018-05-11T00:27:22.259Z,89.74
2018-05-11T00:29:51.181Z,89.04
2018-05-11T00:32:18.921Z,88.93
2018-05-11T00:34:46.510Z,89.38
2018-05-11T00:37:14.187Z,89.43
2018-05-11T00:39:41.801Z,89.00
2018-05-11T00:42:09.475Z,88.66
2018-05-11T00:44:37.228Z,88.30
2018-05-11T00:47:04.842Z,88.91
2018-05-11T00:49:32.565Z,89.07
2018-05-11T00:52:00.205Z,88.97
2018-05-11T00:54:27.850Z,89.39
2018-05-11T00:56:55.429Z,90.25
2018-05-11T00:59:23.143Z,90.08
2018-05-11T01:01:50.742Z,89.76
2018-05-11T01:04:18.337Z,89.58
2018-05-11T01:06:46.896Z,89.09
2018-05-11T01:09:14.531Z,88.71
2018-05-11T01:11:42.140Z,88.67
2018-05-11T01:14:09.800Z,88.78
2018-05-11T01:16:37.408Z,89.07
2018-05-11T01:19:05.173Z,88.95
2018-05-11T01:21:32.836Z,88.67
2018-05-11T01:24:00.450Z,88.80
2018-05-11T01:26:28.131Z,89.50
2018-05-11T01:28:55.948Z,90.64
2018-05-11T01:31:23.563Z,90.08
2018-05-11T01:33:51.218Z,90.77
2018-05-11T01:36:18.882Z,90.02
2018-05-11T01:38:46.530Z,89.48
2018-05-11T01:41:14.131Z,89.65
2018-05-11T01:43:41.764Z,90.33
2018-05-11T01:46:09.362Z,90.11
2018-05-11T01:48:36.987Z,89.45
2018-05-11T01:51:04.636Z,90.17
2018-05-11T01:53:32.238Z,90.08
2018-05-11T01:55:59.940Z,90.00
2018-05-11T01:58:27.629Z,89.39
2018-05-11T02:00:55.261Z,88.91
2018-05-11T02:03:22.857Z,89.21
2018-05-11T02:05:50.507Z,90.90
2018-05-11T02:08:18.104Z,90.72
2018-05-11T02:10:45.725Z,89.75
2018-05-11T02:13:13.316Z,90.33
2018-05-11T02:15:40.986Z,90.29
2018-05-11T02:18:08.609Z,90.11
2018-05-11T02:20:36.401Z,90.31
2018-05-11T02:23:04.223Z,90.72
2018-05-11T02:25:32.685Z,90.61
2018-05-11T02:28:00.322Z,90.64
2018-05-11T02:30:27.951Z,90.14
2018-05-11T02:32:55.635Z,89.72
2018-05-11T02:35:23.275Z,89.70
2018-05-11T02:37:50.959Z,89.83
2018-05-11T02:40:18.767Z,89.61
2018-05-11T02:42:46.424Z,90.06
2018-05-11T02:45:14.096Z,89.59
2018-05-11T02:47:41.749Z,90.13
2018-05-11T02:50:09.360Z,90.94
2018-05-11T02:52:37.028Z,90.92
2018-05-11T02:55:04.681Z,91.24
2018-05-11T02:57:32.347Z,90.67
2018-05-11T02:59:59.958Z,90.55
2018-05-11T03:02:27.585Z,90.12
2018-05-11T03:04:55.223Z,90.27
2018-05-11T03:07:22.837Z,91.02
2018-05-11T03:09:50.540Z,91.43
2018-05-11T03:12:18.145Z,90.92
2018-05-11T03:14:45.816Z,90.75
2018-05-11T03:17:14.411Z,90.62
2018-05-11T03:19:41.999Z,90.63
2018-05-11T03:22:09.701Z,90.63
2018-05-11T03:24:37.338Z,91.48
2018-05-11T03:27:05.541Z,91.42
2018-05-11T03:29:33.152Z,90.89
2018-05-11T03:32:00.851Z,91.10
2018-05-11T03:34:28.461Z,90.55
2018-05-11T03:36:56.107Z,90.41
2018-05-11T03:39:23.723Z,90.32
2018-05-11T03:41:51.356Z,90.65
2018-05-11T03:44:18.992Z,90.85
2018-05-11T03:46:46.619Z,91.09
2018-05-11T03:49:14.330Z,91.45
2018-05-11T03:51:42.069Z,90.87
2018-05-11T03:54:09.721Z,91.26
2018-05-11T03:56:37.389Z,90.64
2018-05-11T03:59:05.058Z,91.57
2018-05-11T04:01:44.414Z,91.18
2018-05-11T04:04:23.815Z,90.70
2018-05-11T04:07:03.178Z,90.54
2018-05-11T04:09:30.835Z,91.20
2018-05-11T04:11:58.475Z,91.20
2018-05-11T04:14:26.127Z,90.90
2018-05-11T04:16:53.733Z,91.24
2018-05-11T04:19:21.372Z,91.03
2018-05-11T04:21:48.980Z,90.58
2018-05-11T04:24:16.673Z,90.91
2018-05-11T04:26:44.323Z,91.23
2018-05-11T04:29:12.004Z,91.46
2018-05-11T04:31:39.687Z,91.80
2018-05-11T04:34:07.452Z,91.09
2018-05-11T04:36:35.371Z,91.32
2018-05-11T04:39:03.259Z,91.31
2018-05-11T04:41:31.582Z,91.13
2018-05-11T04:43:59.287Z,91.41
2018-05-11T04:46:26.948Z,91.22
2018-05-11T04:48:54.547Z,90.82
2018-05-11T04:51:22.195Z,90.66
2018-05-11T04:53:49.811Z,90.98
2018-05-11T04:56:17.618Z,91.34
2018-05-11T04:58:45.280Z,91.82
2018-05-11T05:01:12.910Z,91.74
2018-05-11T05:03:40.586Z,91.26
2018-05-11T05:06:08.242Z,91.87
2018-05-11T05:08:36.891Z,91.53
2018-05-11T05:11:04.592Z,91.31
2018-05-11T05:13:32.254Z,91.37
2018-05-11T05:15:59.910Z,90.98
2018-05-11T05:18:27.523Z,91.16
2018-05-11T05:20:55.181Z,91.33
2018-05-11T05:23:22.886Z,91.40
2018-05-11T05:25:50.647Z,91.69
2018-05-11T05:28:18.927Z,91.31
2018-05-11T05:30:46.593Z,90.63
2018-05-11T05:33:14.233Z,90.50
2018-05-11T05:35:41.923Z,90.92
2018-05-11T05:38:09.627Z,91.09
2018-05-11T05:40:37.285Z,91.42
2018-05-11T05:43:04.991Z,91.43
2018-05-11T05:45:32.641Z,91.67
2018-05-11T05:48:00.361Z,91.59
2018-05-11T05:50:27.947Z,91.99
2018-05-11T05:52:55.626Z,92.29
2018-05-11T05:55:23.320Z,91.99
2018-05-11T05:57:50.927Z,91.76
2018-05-11T06:00:18.601Z,91.24
2018-05-11T06:02:46.224Z,91.16
2018-05-11T06:05:13.918Z,90.84
2018-05-11T06:07:41.865Z,90.49
2018-05-11T06:10:09.519Z,91.38
2018-05-11T06:12:37.142Z,91.04
2018-05-11T06:15:04.796Z,91.02
2018-05-11T06:17:32.434Z,91.35
2018-05-11T06:20:00.029Z,91.59
2018-05-11T06:22:28.538Z,91.35
2018-05-11T06:24:56.304Z,90.65
2018-05-11T06:27:23.968Z,90.34
2018-05-11T06:29:51.598Z,89.97
2018-05-11T06:32:19.266Z,90.11
2018-05-11T06:34:46.930Z,89.56
2018-05-11T06:37:15.559Z,88.68
2018-05-11T06:39:43.279Z,86.97
2018-05-11T06:42:10.987Z,85.91
2018-05-11T06:44:38.594Z,86.12
2018-05-11T06:47:06.206Z,85.21
2018-05-11T06:49:33.871Z,85.15
2018-05-11T06:52:01.538Z,85.69
2018-05-11T06:54:29.198Z,86.73
2018-05-11T06:56:56.899Z,85.54
2018-05-11T06:59:24.580Z,84.89
2018-05-11T07:01:52.245Z,86.30
2018-05-11T07:04:20.078Z,85.14
2018-05-11T07:06:47.975Z,85.87
2018-05-11T07:09:15.821Z,85.15
2018-05-11T07:11:43.618Z,84.69
2018-05-11T07:14:11.311Z,83.27
2018-05-11T07:16:39.085Z,84.07
2018-05-11T07:19:06.921Z,85.57
2018-05-11T07:21:34.702Z,85.25
2018-05-11T07:24:02.487Z,84.20
2018-05-11T07:26:30.175Z,84.53
2018-05-11T07:28:58.084Z,84.94
2018-05-11T07:31:25.765Z,84.79
2018-05-11T07:33:53.466Z,85.55
2018-05-11T07:36:21.198Z,83.98
2018-05-11T07:38:48.848Z,83.34
2018-05-11T07:41:16.467Z,82.89
2018-05-11T07:43:44.155Z,83.17
2018-05-11T07:46:11.820Z,80.90
2018-05-11T07:48:39.567Z,80.71
2018-05-11T07:51:07.169Z,81.08
2018-05-11T07:53:35.040Z,79.77
2018-05-11T07:56:03.923Z,80.07
2018-05-11T07:58:31.613Z,78.00
2018-05-11T08:00:59.250Z,79.11
2018-05-11T08:03:26.991Z,78.78
2018-05-11T08:05:54.597Z,79.08
2018-05-11T08:08:22.221Z,78.23
2018-05-11T08:10:49.993Z,75.49
2018-05-11T08:13:17.614Z,76.52
2018-05-11T08:15:45.215Z,74.95
2018-05-11T08:18:12.876Z,75.37
2018-05-11T08:20:40.531Z,77.38
2018-05-11T08:23:08.179Z,76.45
2018-05-11T08:25:35.926Z,76.79
2018-05-11T08:28:03.592Z,76.73
2018-05-11T08:30:31.273Z,78.33
2018-05-11T08:32:58.967Z,77.70
2018-05-11T08:35:26.605Z,76.94
2018-05-11T08:37:54.290Z,75.14
2018-05-11T08:40:21.912Z,74.37
2018-05-11T08:42:49.616Z,75.95
2018-05-11T08:45:17.304Z,75.24
2018-05-11T08:47:45.085Z,72.90
2018-05-11T08:50:12.739Z,74.10
2018-05-11T08:52:40.622Z,72.66
2018-05-11T08:55:08.328Z,69.59
2018-05-11T08:57:35.939Z,70.30
2018-05-11T09:00:03.652Z,69.69
2018-05-11T09:02:31.360Z,71.61
2018-05-11T09:04:58.996Z,71.28
2018-05-11T09:07:26.697Z,68.04
2018-05-11T09:09:54.477Z,68.35
2018-05-11T09:12:22.192Z,68.33
2018-05-11T09:14:49.845Z,69.49
2018-05-11T09:17:17.531Z,69.63
2018-05-11T09:19:45.215Z,69.06
2018-05-11T09:22:12.828Z,68.46
2018-05-11T09:24:40.458Z,68.19
2018-05-11T09:27:08.167Z,70.60
2018-05-11T09:29:35.847Z,70.64
2018-05-11T09:32:03.582Z,71.88
2018-05-11T09:34:31.318Z,72.11
2018-05-11T09:36:58.964Z,71.24
2018-05-11T09:39:26.660Z,70.37
2018-05-11T09:41:54.325Z,70.95
2018-05-11T09:44:22.053Z,70.14
2018-05-11T09:46:49.682Z,67.44
2018-05-11T09:49:17.370Z,66.87
2018-05-11T09:51:44.999Z,68.33
2018-05-11T09:54:12.704Z,69.14
2018-05-11T09:56:40.348Z,67.42
2018-05-11T09:59:08.021Z,68.39
2018-05-11T10:01:35.685Z,65.69
2018-05-11T10:04:03.347Z,65.57
2018-05-11T10:06:31.049Z,64.45
2018-05-11T10:08:58.822Z,64.85
2018-05-11T10:11:26.557Z,64.42
2018-05-11T10:13:54.254Z,66.11
2018-05-11T10:16:21.972Z,61.97
2018-05-11T10:18:49.597Z,63.64
2018-05-11T10:21:17.315Z,64.49
2018-05-11T10:23:44.999Z,64.44
2018-05-11T10:26:12.652Z,62.94
2018-05-11T10:28:40.441Z,63.06
2018-05-11T10:31:08.198Z,63.41
2018-05-11T10:33:35.909Z,63.50
2018-05-11T10:36:03.611Z,61.12
2018-05-11T10:38:31.236Z,60.82
2018-05-11T10:40:58.881Z,60.87
2018-05-11T10:43:27.376Z,58.74
2018-05-11T10:45:55.112Z,58.76
2018-05-11T10:48:22.847Z,60.48
2018-05-11T10:50:50.554Z,59.82
2018-05-11T10:53:18.347Z,60.62
2018-05-11T10:55:45.973Z,59.97
2018-05-11T10:58:13.961Z,60.88
2018-05-11T11:00:41.599Z,60.35
2018-05-11T11:03:09.328Z,59.69
2018-05-11T11:05:37.835Z,59.12
2018-05-11T11:08:05.741Z,57.93
2018-05-11T11:10:33.452Z,59.81
2018-05-11T11:13:01.339Z,58.82
2018-05-11T11:15:28.944Z,59.83
2018-05-11T11:17:56.579Z,59.05
2018-05-11T11:20:24.447Z,58.39
2018-05-11T11:22:52.101Z,57.41
2018-05-11T11:25:19.810Z,58.17
2018-05-11T11:27:47.480Z,57.21
2018-05-11T11:30:15.181Z,54.83
2018-05-11T11:32:42.852Z,54.43
2018-05-11T11:35:10.687Z,56.75
2018-05-11T11:37:38.327Z,56.72
2018-05-11T11:40:06.039Z,53.78
2018-05-11T11:42:33.691Z,57.00
2018-05-11T11:45:02.563Z,53.74
2018-05-11T11:47:30.220Z,55.30
2018-05-11T11:49:57.868Z,53.11
2018-05-11T11:52:25.544Z,55.15
2018-05-11T11:54:53.257Z,54.23
2018-05-11T11:57:20.905Z,54.02
2018-05-11T11:59:48.573Z,54.49
2018-05-11T12:02:16.189Z,56.02
2018-05-11T12:04:43.870Z,54.44
2018-05-11T12:07:11.525Z,53.41
2018-05-11T12:09:39.212Z,54.44
2018-05-11T12:12:06.927Z,54.04
2018-05-11T12:14:34.540Z,54.29
2018-05-11T12:17:02.383Z,55.35
2018-05-11T12:19:30.037Z,55.11
2018-05-11T12:21:57.709Z,54.80
2018-05-11T12:24:25.309Z,52.52
2018-05-11T12:26:52.962Z,53.17
2018-05-11T12:29:20.632Z,52.21
2018-05-11T12:31:48.320Z,54.67
2018-05-11T12:34:15.962Z,54.34
2018-05-11T12:36:43.639Z,55.34
2018-05-11T12:39:11.301Z,52.88
2018-05-11T12:41:38.939Z,53.82
2018-05-11T12:44:06.605Z,54.01
2018-05-11T12:46:34.226Z,53.70
2018-05-11T12:49:01.930Z,52.97
2018-05-11T12:51:29.579Z,53.60
2018-05-11T12:53:57.263Z,54.89
2018-05-11T12:56:24.967Z,56.33
2018-05-11T12:58:52.654Z,55.73
2018-05-11T13:01:20.270Z,55.52
2018-05-11T13:03:47.973Z,56.28
2018-05-11T13:06:15.671Z,57.20
2018-05-11T13:08:43.294Z,56.41
2018-05-11T13:11:10.972Z,57.06
2018-05-11T13:13:38.670Z,58.26
2018-05-11T13:16:06.343Z,57.51
2018-05-11T13:18:34.045Z,57.94
2018-05-11T13:21:01.668Z,57.50
2018-05-11T13:23:29.377Z,57.37
2018-05-11T13:25:57.101Z,58.90
2018-05-11T13:28:24.795Z,56.89
2018-05-11T13:30:52.443Z,58.04
2018-05-11T13:33:20.102Z,54.97
2018-05-11T13:35:47.725Z,54.93
2018-05-11T13:38:15.413Z,53.00
2018-05-11T13:40:43.069Z,51.74
2018-05-11T13:43:10.768Z,51.36
2018-05-11T13:45:38.448Z,53.38
2018-05-11T13:48:06.118Z,51.63
2018-05-11T13:50:33.809Z,53.79
2018-05-11T13:53:01.515Z,54.31
2018-05-11T13:55:29.134Z,55.20
2018-05-11T13:57:57.365Z,55.81
2018-05-11T14:00:24.958Z,55.88
2018-05-11T14:02:52.791Z,55.36
2018-05-11T14:05:20.424Z,53.74
2018-05-11T14:07:49.156Z,55.34
2018-05-11T14:10:16.790Z,55.48
2018-05-11T14:12:44.575Z,55.09
2018-05-11T14:15:12.288Z,55.25
2018-05-11T14:17:39.898Z,54.63
2018-05-11T14:20:07.559Z,55.86
2018-05-11T14:22:35.749Z,56.83
2018-05-11T14:25:03.397Z,54.35
2018-05-11T14:27:31.065Z,55.15
2018-05-11T14:29:58.667Z,56.62
2018-05-11T14:32:26.343Z,54.38
2018-05-11T14:34:53.908Z,52.33
2018-05-11T14:37:21.552Z,54.52
2018-05-11T14:39:49.361Z,57.16
2018-05-11T14:42:17.141Z,55.45
2018-05-11T14:44:44.889Z,54.14
2018-05-11T14:47:12.555Z,55.60
2018-05-11T14:49:40.190Z,58.35
2018-05-11T14:52:07.940Z,59.02
2018-05-11T14:54:36.725Z,60.08
2018-05-11T14:57:04.343Z,59.81
2018-05-11T14:59:32.009Z,59.82
2018-05-11T15:01:59.679Z,60.11
2018-05-11T15:04:27.407Z,57.92
2018-05-11T15:06:55.091Z,58.29
2018-05-11T15:09:22.745Z,58.87
2018-05-11T15:11:50.400Z,60.57
2018-05-11T15:14:18.106Z,61.48
2018-05-11T15:16:45.774Z,61.65
2018-05-11T15:19:13.484Z,62.90
2018-05-11T15:21:41.137Z,60.71
2018-05-11T15:24:08.816Z,59.08
2018-05-11T15:26:36.494Z,58.69
2018-05-11T15:29:04.199Z,56.59
2018-05-11T15:31:31.851Z,55.78
2018-05-11T15:33:59.532Z,54.19
2018-05-11T15:36:27.135Z,53.95
2018-05-11T15:38:54.847Z,54.86
2018-05-11T15:41:22.443Z,55.50
2018-05-11T15:43:50.123Z,56.74
2018-05-11T15:46:17.771Z,56.54
2018-05-11T15:48:45.461Z,56.11
2018-05-11T15:51:13.079Z,55.27
2018-05-11T15:53:40.767Z,54.88
2018-05-11T15:56:09.351Z,53.80
2018-05-11T15:58:37.055Z,54.36
2018-05-11T16:01:04.665Z,57.41
2018-05-11T16:03:32.260Z,54.80
2018-05-11T16:06:00.991Z,56.57
2018-05-11T16:08:28.599Z,57.15
2018-05-11T16:10:56.284Z,57.30
2018-05-11T16:13:23.934Z,57.67
2018-05-11T16:15:51.566Z,58.21
2018-05-11T16:18:19.262Z,60.65
2018-05-11T16:20:46.968Z,59.03
2018-05-11T16:23:15.569Z,58.99
2018-05-11T16:25:44.189Z,60.61
2018-05-11T16:28:11.798Z,57.40
2018-05-11T16:30:39.557Z,58.48
2018-05-11T16:33:07.215Z,58.32
2018-05-11T16:35:35.713Z,59.64
2018-05-11T16:38:03.451Z,59.15
2018-05-11T16:40:32.056Z,61.92
2018-05-11T16:42:59.759Z,61.86
2018-05-11T16:45:27.447Z,61.98
2018-05-11T16:47:55.078Z,62.03
2018-05-11T16:50:22.781Z,61.65
2018-05-11T16:52:50.406Z,61.55
2018-05-11T16:55:18.137Z,65.42
2018-05-11T16:57:45.911Z,64.25
2018-05-11T17:00:13.728Z,65.11
2018-05-11T17:02:41.379Z,65.11
2018-05-11T17:05:09.221Z,66.49
2018-05-11T17:07:36.869Z,65.59
2018-05-11T17:10:04.469Z,66.30
2018-05-11T17:12:32.172Z,67.27
2018-05-11T17:14:59.788Z,69.09
2018-05-11T17:17:27.461Z,71.01
2018-05-11T17:19:55.102Z,69.67
2018-05-11T17:22:22.708Z,69.67
2018-05-11T17:24:50.408Z,71.30
2018-05-11T17:27:18.443Z,70.99
2018-05-11T17:29:46.083Z,70.45
2018-05-11T17:32:13.868Z,70.71
2018-05-11T17:34:42.081Z,70.96
2018-05-11T17:37:09.711Z,70.77
2018-05-11T17:39:37.693Z,71.34
2018-05-11T17:42:05.463Z,71.11
2018-05-11T17:44:33.153Z,69.02
2018-05-11T17:47:00.836Z,70.49
2018-05-11T17:49:28.448Z,70.06
2018-05-11T17:51:56.146Z,70.35
2018-05-11T17:54:23.762Z,70.24
2018-05-11T17:56:51.590Z,71.22
2018-05-11T17:59:19.268Z,70.98
2018-05-11T18:01:46.999Z,69.63
2018-05-11T18:04:14.689Z,68.39
2018-05-11T18:06:46.020Z,69.27
2018-05-11T18:09:13.734Z,70.86
2018-05-11T18:11:41.387Z,70.91
2018-05-11T18:14:09.011Z,70.83
2018-05-11T18:16:36.675Z,71.26
2018-05-11T18:19:04.352Z,70.95
2018-05-11T18:21:32.072Z,71.76
2018-05-11T18:24:01.114Z,72.02
2018-05-11T18:26:29.660Z,71.44
2018-05-11T18:28:58.105Z,71.29
2018-05-11T18:31:25.929Z,71.33
2018-05-11T18:33:54.399Z,70.30
2018-05-11T18:36:23.098Z,70.24
2018-05-11T18:38:50.815Z,71.47
2018-05-11T18:41:18.467Z,71.93
2018-05-11T18:43:46.174Z,71.46
2018-05-11T18:46:13.851Z,71.61
2018-05-11T18:48:41.556Z,71.28
2018-05-11T18:51:10.000Z,71.00
2018-05-11T18:53:37.878Z,70.34
2018-05-11T18:56:05.405Z,70.82
2018-05-11T18:58:33.352Z,71.14
2018-05-11T19:01:01.077Z,70.86
2018-05-11T19:03:29.004Z,70.99
2018-05-11T19:05:56.692Z,71.94
2018-05-11T19:08:24.322Z,72.19
2018-05-11T19:10:52.192Z,71.49
2018-05-11T19:13:20.060Z,73.36
2018-05-11T19:15:47.947Z,73.65
2018-05-11T19:18:15.618Z,73.59
2018-05-11T19:20:43.338Z,73.73
2018-05-11T19:23:11.927Z,72.81
2018-05-11T19:25:39.832Z,72.40
2018-05-11T19:28:07.967Z,71.70
2018-05-11T19:30:35.752Z,71.83
2018-05-11T19:33:03.454Z,72.42
2018-05-11T19:35:31.171Z,73.35
2018-05-11T19:37:59.591Z,74.51
2018-05-11T19:40:27.327Z,74.71
2018-05-11T19:42:55.002Z,75.54
2018-05-11T19:45:23.033Z,74.80
2018-05-11T19:47:50.794Z,74.16
2018-05-11T19:50:18.561Z,73.93
2018-05-11T19:52:46.232Z,74.20
2018-05-11T19:55:14.133Z,74.38
2018-05-11T19:57:42.452Z,74.21
2018-05-11T20:00:10.147Z,74.72
2018-05-11T20:02:37.842Z,76.06
2018-05-11T20:05:05.539Z,75.79
2018-05-11T20:07:33.290Z,75.50
2018-05-11T20:10:00.995Z,75.10
2018-05-11T20:12:28.639Z,74.66
2018-05-11T20:14:56.522Z,74.41
2018-05-11T20:17:24.215Z,74.35
2018-05-11T20:19:52.041Z,75.13
2018-05-11T20:22:19.739Z,74.83
2018-05-11T20:24:47.486Z,75.35
2018-05-11T20:27:15.806Z,75.27
2018-05-11T20:29:43.491Z,76.35
2018-05-11T20:32:11.199Z,76.43
2018-05-11T20:34:38.912Z,76.30
2018-05-11T20:37:06.551Z,76.85
2018-05-11T20:39:34.596Z,78.14
2018-05-11T20:42:02.419Z,78.52
2018-05-11T20:44:30.148Z,78.07
2018-05-11T20:46:57.843Z,77.05
2018-05-11T20:49:26.546Z,76.88
2018-05-11T20:51:54.525Z,76.20
2018-05-11T20:54:22.201Z,76.84
2018-05-11T20:56:49.890Z,76.79
2018-05-11T20:59:17.498Z,77.05
2018-05-11T21:01:45.212Z,77.71
2018-05-11T21:04:12.841Z,77.81
2018-05-11T21:06:40.573Z,77.24
2018-05-11T21:09:08.221Z,77.64
2018-05-11T21:11:37.053Z,77.81
2018-05-11T21:14:04.752Z,78.02
2018-05-11T21:16:32.520Z,77.29
2018-05-11T21:19:00.175Z,76.30
2018-05-11T21:21:27.799Z,76.57
2018-05-11T21:23:55.471Z,76.19
2018-05-11T21:26:23.088Z,76.12
2018-05-11T21:28:52.247Z,77.16
2018-05-11T21:31:19.894Z,76.66
2018-05-11T21:33:47.541Z,78.43
2018-05-11T21:36:15.260Z,78.69
2018-05-11T21:38:42.956Z,78.89
2018-05-11T21:41:10.602Z,78.35
2018-05-11T21:43:38.338Z,78.65
2018-05-11T21:46:06.002Z,78.76
2018-05-11T21:48:33.689Z,78.70
2018-05-11T21:51:01.343Z,79.22
2018-05-11T21:53:28.966Z,79.71
2018-05-11T21:55:56.682Z,80.42
2018-05-11T21:58:24.306Z,80.26
2018-05-11T22:00:51.954Z,80.29
2018-05-11T22:03:19.657Z,80.88
2018-05-11T22:05:47.259Z,80.84
2018-05-11T22:08:14.977Z,81.01
2018-05-11T22:10:42.622Z,80.76
2018-05-11T22:13:10.367Z,80.58
2018-05-11T22:15:37.983Z,80.79
2018-05-11T22:18:05.704Z,81.02
2018-05-11T22:20:33.403Z,80.86
2018-05-11T22:23:01.046Z,80.90
2018-05-11T22:25:28.763Z,81.07
2018-05-11T22:27:56.489Z,80.94
2018-05-11T22:30:24.493Z,81.24
2018-05-11T22:32:52.486Z,81.41
2018-05-11T22:35:20.398Z,81.70
2018-05-11T22:37:49.099Z,82.53
2018-05-11T22:40:16.994Z,82.91
2018-05-11T22:42:45.374Z,81.75
2018-05-11T22:45:13.023Z,81.90
2018-05-11T22:47:40.661Z,81.84
2018-05-11T22:50:08.359Z,81.36
2018-05-11T22:52:36.048Z,81.87
2018-05-11T22:55:03.665Z,82.17
2018-05-11T22:57:31.321Z,82.28
2018-05-11T22:59:58.983Z,81.77
2018-05-11T23:02:26.630Z,82.18
2018-05-11T23:04:54.234Z,81.74
2018-05-11T23:07:21.873Z,81.76
2018-05-11T23:09:49.502Z,82.58
2018-05-11T23:12:17.161Z,83.82
2018-05-11T23:14:44.821Z,82.65
2018-05-11T23:17:12.419Z,81.98
2018-05-11T23:19:40.071Z,82.06
2018-05-11T23:22:07.838Z,81.58
2018-05-11T23:24:35.448Z,81.57
2018-05-11T23:27:03.054Z,81.50
2018-05-11T23:29:30.696Z,81.75
2018-05-11T23:31:58.322Z,82.59
2018-05-11T23:34:26.371Z,83.35
2018-05-11T23:36:54.052Z,82.71
2018-05-11T23:39:21.649Z,82.65
2018-05-11T23:41:49.305Z,83.59
2018-05-11T23:44:16.890Z,83.56
2018-05-11T23:46:44.488Z,84.17
2018-05-11T23:49:12.147Z,84.45
2018-05-11T23:51:39.779Z,84.05
2018-05-11T23:54:07.418Z,83.98
2018-05-11T23:56:35.034Z,83.66
2018-05-11T23:59:02.745Z,83.60
